createdAt,value
2019-05-15T00:00:10.832Z,6.57
2019-05-15T00:02:39.364Z,8.30
2019-05-15T00:05:09.072Z,7.47
2019-05-15T00:07:39.290Z,6.30
2019-05-15T00:10:08.775Z,7.53
2019-05-15T00:12:39.559Z,7.40
2019-05-15T00:15:09.178Z,8.30
2019-05-15T00:17:39.311Z,7.77
2019-05-15T00:20:10.057Z,8.97
2019-05-15T00:22:39.059Z,6.20
2019-05-15T00:25:09.383Z,7.80
2019-05-15T00:27:38.822Z,8.53
2019-05-15T00:30:09.866Z,7.50
2019-05-15T00:32:39.270Z,7.37
2019-05-15T00:35:09.390Z,9.83
2019-05-15T00:37:38.855Z,7.53
2019-05-15T00:40:08.990Z,8.23
2019-05-15T00:42:38.453Z,6.70
2019-05-15T00:45:09.412Z,7.27
2019-05-15T00:47:39.712Z,7.57
2019-05-15T00:50:10.087Z,7.03
2019-05-15T00:52:39.405Z,10.53
2019-05-15T00:55:08.875Z,5.23
2019-05-15T00:57:39.354Z,7.60
2019-05-15T01:00:08.727Z,9.77
2019-05-15T01:02:38.745Z,6.73
2019-05-15T01:05:08.466Z,6.00
2019-05-15T01:07:39.307Z,6.53
2019-05-15T01:10:10.566Z,7.27
2019-05-15T01:12:39.057Z,8.53
2019-05-15T01:15:09.309Z,9.40
2019-05-15T01:17:39.181Z,7.20
2019-05-15T01:20:08.629Z,4.90
2019-05-15T01:22:39.304Z,8.90
2019-05-15T01:25:08.650Z,8.17
2019-05-15T01:27:38.604Z,6.47
2019-05-15T01:30:08.927Z,8.37
2019-05-15T01:32:39.493Z,7.40
2019-05-15T01:35:09.469Z,8.87
2019-05-15T01:37:39.158Z,6.77
2019-05-15T01:40:09.056Z,5.43
2019-05-15T01:42:38.663Z,8.70
2019-05-15T01:45:08.687Z,6.60
2019-05-15T01:47:38.808Z,6.57
2019-05-15T01:50:09.227Z,7.60
2019-05-15T01:52:39.005Z,7.47
2019-05-15T01:55:09.536Z,8.33
2019-05-15T01:57:38.622Z,8.47
2019-05-15T02:00:09.645Z,7.53
2019-05-15T02:02:39.008Z,10.57
2019-05-15T02:05:09.393Z,6.70
2019-05-15T02:07:39.951Z,6.37
2019-05-15T02:10:09.285Z,9.23
2019-05-15T02:12:39.025Z,6.67
2019-05-15T02:15:09.419Z,8.03
2019-05-15T02:17:39.232Z,12.40
2019-05-15T02:20:08.632Z,10.23
2019-05-15T02:22:42.001Z,9.50
2019-05-15T02:25:08.616Z,9.40
2019-05-15T02:27:39.352Z,9.60
2019-05-15T02:30:22.291Z,10.23
2019-05-15T02:32:39.946Z,7.37
2019-05-15T02:35:10.041Z,7.43
2019-05-15T02:37:40.811Z,8.53
2019-05-15T02:40:10.541Z,9.67
2019-05-15T02:42:40.107Z,8.10
2019-05-15T02:45:10.761Z,14.20
2019-05-15T02:47:40.039Z,6.70
2019-05-15T02:50:11.064Z,7.37
2019-05-15T02:52:44.772Z,7.57
2019-05-15T02:55:10.937Z,9.53
2019-05-15T02:57:39.827Z,8.40
2019-05-15T03:00:10.959Z,9.63
2019-05-15T03:02:41.505Z,10.87
2019-05-15T03:05:09.911Z,10.33
2019-05-15T03:07:40.400Z,10.00
2019-05-15T03:10:09.540Z,7.27
2019-05-15T03:12:40.810Z,9.27
2019-05-15T03:15:09.688Z,7.93
2019-05-15T03:17:40.313Z,8.37
2019-05-15T03:20:10.272Z,9.07
2019-05-15T03:22:40.368Z,7.03
2019-05-15T03:25:10.809Z,9.20
2019-05-15T03:27:40.151Z,12.37
2019-05-15T03:30:13.499Z,9.23
2019-05-15T03:32:51.763Z,8.70
2019-05-15T03:35:14.403Z,9.97
2019-05-15T03:37:40.547Z,8.80
2019-05-15T03:40:10.576Z,8.27
2019-05-15T03:42:39.943Z,11.23
2019-05-15T03:45:10.182Z,7.27
2019-05-15T03:47:40.340Z,9.18
2019-05-15T03:50:10.815Z,9.67
2019-05-15T03:52:40.021Z,8.63
2019-05-15T03:55:10.608Z,8.53
2019-05-15T03:57:41.661Z,10.03
2019-05-15T04:00:10.672Z,11.43
2019-05-15T04:02:39.813Z,9.70
2019-05-15T04:05:11.740Z,8.00
2019-05-15T04:07:39.950Z,8.67
2019-05-15T04:10:10.000Z,10.77
2019-05-15T04:12:40.306Z,6.83
2019-05-15T04:15:10.794Z,11.10
2019-05-15T04:17:40.916Z,7.60
2019-05-15T04:20:10.360Z,8.90
2019-05-15T04:22:39.975Z,9.77
2019-05-15T04:25:10.330Z,11.57
2019-05-15T04:27:40.702Z,8.67
2019-05-15T04:30:10.576Z,9.17
2019-05-15T04:32:40.339Z,7.77
2019-05-15T04:35:10.166Z,9.30
2019-05-15T04:37:59.690Z,8.57
2019-05-15T04:40:29.888Z,7.95
2019-05-15T04:42:59.272Z,11.03
2019-05-15T04:45:34.439Z,13.33
2019-05-15T04:47:58.843Z,11.30
2019-05-15T04:50:28.825Z,7.43
2019-05-15T04:52:59.278Z,10.30
2019-05-15T04:55:29.066Z,8.20
2019-05-15T04:57:59.141Z,11.67
2019-05-15T05:00:49.553Z,10.63
2019-05-15T05:03:20.184Z,14.60
2019-05-15T05:05:50.154Z,10.43
2019-05-15T05:08:20.406Z,10.90
2019-05-15T05:10:49.729Z,14.17
2019-05-15T05:13:19.857Z,13.47
2019-05-15T05:15:50.093Z,9.03
2019-05-15T05:18:19.293Z,11.73
2019-05-15T05:20:48.456Z,13.43
2019-05-15T05:23:19.353Z,10.27
2019-05-15T05:25:49.065Z,10.17
2019-05-15T05:28:18.151Z,10.17
2019-05-15T05:30:48.225Z,10.20
2019-05-15T05:33:18.396Z,10.20
2019-05-15T05:35:48.456Z,8.60
2019-05-15T05:38:19.236Z,9.03
2019-05-15T05:40:49.569Z,9.83
2019-05-15T05:43:18.575Z,10.23
2019-05-15T05:45:49.128Z,6.67
2019-05-15T05:48:18.711Z,8.78
2019-05-15T05:50:49.783Z,9.60
2019-05-15T05:53:17.775Z,8.10
2019-05-15T05:55:49.216Z,13.33
2019-05-15T05:58:19.361Z,9.83
2019-05-15T06:00:48.895Z,9.50
2019-05-15T06:03:19.975Z,9.40
2019-05-15T06:05:49.746Z,12.97
2019-05-15T06:08:19.551Z,12.95
2019-05-15T06:10:49.535Z,11.93
2019-05-15T06:13:18.759Z,10.47
2019-05-15T06:15:48.721Z,8.33
2019-05-15T06:18:19.645Z,8.23
2019-05-15T06:20:49.362Z,7.63
2019-05-15T06:23:23.797Z,9.18
2019-05-15T06:25:49.040Z,6.70
2019-05-15T06:28:19.556Z,8.27
2019-05-15T06:30:48.645Z,9.20
2019-05-15T06:33:18.823Z,11.63
2019-05-15T06:35:48.840Z,7.17
2019-05-15T06:38:19.243Z,7.97
2019-05-15T06:40:49.080Z,6.20
2019-05-15T06:43:19.266Z,6.33
2019-05-15T06:45:48.786Z,7.93
2019-05-15T06:48:18.320Z,11.40
2019-05-15T06:50:49.206Z,8.60
2019-05-15T06:53:19.290Z,8.73
2019-05-15T06:55:48.616Z,11.47
2019-05-15T06:58:19.109Z,8.85
2019-05-15T07:00:48.786Z,7.23
2019-05-15T07:03:24.879Z,6.28
2019-05-15T07:05:50.819Z,7.90
2019-05-15T07:08:18.451Z,9.07
2019-05-15T07:10:48.769Z,6.20
2019-05-15T07:13:18.257Z,7.25
2019-05-15T07:15:49.481Z,5.07
2019-05-15T07:18:19.392Z,9.13
2019-05-15T07:21:10.414Z,8.73
2019-05-15T07:23:38.606Z,5.90
2019-05-15T07:26:09.545Z,6.47
2019-05-15T07:28:37.992Z,5.10
2019-05-15T07:31:11.305Z,6.93
2019-05-15T07:33:43.338Z,3.83
2019-05-15T07:36:08.400Z,3.83
2019-05-15T07:38:39.163Z,3.03
2019-05-15T07:41:10.510Z,5.60
2019-05-15T07:43:39.374Z,4.00
2019-05-15T07:46:08.505Z,5.00
2019-05-15T07:48:38.388Z,3.20
2019-05-15T07:51:11.442Z,4.47
2019-05-15T07:53:38.392Z,3.77
2019-05-15T07:56:11.428Z,5.60
2019-05-15T07:58:38.621Z,2.77
2019-05-15T08:01:09.664Z,3.97
2019-05-15T08:03:55.075Z,2.50
2019-05-15T08:06:09.786Z,4.63
2019-05-15T08:08:39.351Z,2.37
2019-05-15T08:11:17.483Z,2.30
2019-05-15T08:13:38.395Z,1.97
2019-05-15T08:16:08.635Z,2.80
2019-05-15T08:18:39.265Z,4.30
2019-05-15T08:21:08.968Z,2.30
2019-05-15T08:23:39.209Z,2.03
2019-05-15T08:26:08.729Z,1.93
2019-05-15T08:28:38.235Z,2.23
2019-05-15T08:31:10.104Z,2.80
2019-05-15T08:33:38.932Z,2.37
2019-05-15T08:36:08.972Z,2.63
2019-05-15T08:38:38.299Z,3.10
2019-05-15T08:41:11.218Z,2.50
2019-05-15T08:43:38.191Z,2.17
2019-05-15T08:46:08.230Z,2.83
2019-05-15T08:48:38.306Z,2.07
2019-05-15T08:51:08.768Z,3.77
2019-05-15T08:53:37.972Z,3.70
2019-05-15T08:56:08.453Z,2.43
2019-05-15T08:58:38.181Z,2.77
2019-05-15T09:01:09.735Z,4.33
2019-05-15T09:03:38.036Z,2.67
2019-05-15T09:06:08.989Z,2.83
2019-05-15T09:08:39.099Z,1.90
2019-05-15T09:11:08.949Z,1.83
2019-05-15T09:13:42.993Z,2.43
2019-05-15T09:16:09.897Z,1.57
2019-05-15T09:18:39.130Z,3.17
2019-05-15T09:21:08.779Z,1.20
2019-05-15T09:23:38.763Z,1.57
2019-05-15T09:26:09.390Z,3.80
2019-05-15T09:28:39.136Z,1.70
2019-05-15T09:31:08.444Z,1.90
2019-05-15T09:33:38.705Z,2.37
2019-05-15T09:36:09.095Z,1.73
2019-05-15T09:38:39.134Z,1.83
2019-05-15T09:41:09.027Z,1.10
2019-05-15T09:43:38.448Z,2.23
2019-05-15T09:46:10.172Z,2.23
2019-05-15T09:48:39.061Z,2.40
2019-05-15T09:51:09.258Z,1.93
2019-05-15T09:53:39.428Z,3.07
2019-05-15T09:56:08.248Z,1.80
2019-05-15T09:58:38.088Z,2.60
2019-05-15T10:01:08.385Z,2.77
2019-05-15T10:03:39.535Z,2.17
2019-05-15T10:06:08.153Z,2.43
2019-05-15T10:08:39.531Z,1.67
2019-05-15T10:11:09.117Z,0.93
2019-05-15T10:13:38.391Z,3.10
2019-05-15T10:16:08.370Z,1.73
2019-05-15T10:18:38.889Z,1.30
2019-05-15T10:21:09.006Z,2.03
2019-05-15T10:23:40.349Z,3.60
2019-05-15T10:26:13.852Z,3.27
2019-05-15T10:28:39.085Z,0.90
2019-05-15T10:31:09.385Z,1.77
2019-05-15T10:33:39.342Z,3.70
2019-05-15T10:36:08.432Z,1.10
2019-05-15T10:38:39.177Z,0.97
2019-05-15T10:41:11.305Z,1.57
2019-05-15T10:43:44.651Z,1.73
2019-05-15T10:46:13.399Z,2.80
2019-05-15T10:48:38.555Z,2.00
2019-05-15T10:51:10.151Z,1.77
2019-05-15T10:53:39.130Z,2.80
2019-05-15T10:56:08.887Z,2.93
2019-05-15T10:58:39.258Z,2.97
2019-05-15T11:01:10.989Z,2.10
2019-05-15T11:03:40.007Z,3.53
2019-05-15T11:06:09.102Z,2.17
2019-05-15T11:08:40.504Z,1.50
2019-05-15T11:11:09.157Z,0.80
2019-05-15T11:13:38.389Z,1.00
2019-05-15T11:16:07.000Z,1.70
2019-05-15T11:18:35.835Z,2.20
2019-05-15T11:21:05.006Z,1.40
2019-05-15T11:23:33.426Z,2.30
2019-05-15T11:26:01.877Z,1.83
2019-05-15T11:28:32.265Z,1.17
2019-05-15T11:31:00.443Z,1.73
2019-05-15T11:33:29.432Z,1.90
2019-05-15T11:36:05.534Z,1.80
2019-05-15T11:38:29.102Z,1.43
2019-05-15T11:40:57.796Z,1.10
2019-05-15T11:43:28.939Z,1.27
2019-05-15T11:45:58.660Z,1.43
2019-05-15T11:48:29.548Z,1.03
2019-05-15T11:50:56.678Z,2.13
2019-05-15T11:53:25.164Z,2.33
2019-05-15T11:55:53.608Z,1.00
2019-05-15T11:58:22.019Z,1.00
2019-05-15T12:00:50.449Z,4.20
2019-05-15T12:03:19.286Z,2.35
2019-05-15T12:05:47.943Z,2.70
2019-05-15T12:08:18.477Z,1.47
2019-05-15T12:10:46.582Z,1.53
2019-05-15T12:13:14.996Z,1.83
2019-05-15T12:15:43.431Z,2.47
2019-05-15T12:18:11.866Z,1.32
2019-05-15T12:20:40.284Z,3.13
2019-05-15T12:23:09.331Z,2.97
2019-05-15T12:25:39.483Z,2.73
2019-05-15T12:28:09.420Z,2.20
2019-05-15T12:30:40.233Z,2.53
2019-05-15T12:33:09.779Z,2.37
2019-05-15T12:35:39.583Z,2.03
2019-05-15T12:38:10.044Z,2.13
2019-05-15T13:00:40.507Z,1.87
2019-05-15T13:03:09.260Z,4.03
2019-05-15T13:05:39.219Z,2.33
2019-05-15T13:08:08.489Z,2.07
2019-05-15T13:10:38.375Z,2.37
2019-05-15T13:13:09.635Z,5.23
2019-05-15T13:15:40.833Z,2.50
2019-05-15T13:18:13.864Z,3.33
2019-05-15T13:20:38.400Z,2.87
2019-05-15T13:23:08.811Z,2.47
2019-05-15T13:25:39.458Z,2.43
2019-05-15T13:28:08.915Z,3.90
2019-05-15T13:30:41.256Z,2.27
2019-05-15T13:33:10.048Z,1.93
2019-05-15T13:35:38.262Z,2.27
2019-05-15T13:38:09.562Z,2.00
2019-05-15T13:40:38.983Z,5.28
2019-05-15T13:43:08.307Z,2.53
2019-05-15T13:45:38.613Z,4.10
2019-05-15T13:48:08.941Z,5.10
2019-05-15T13:50:40.373Z,3.00
2019-05-15T13:53:10.414Z,2.20
2019-05-15T13:55:42.508Z,4.53
2019-05-15T13:58:08.884Z,1.60
2019-05-15T14:00:39.032Z,5.13
2019-05-15T14:03:09.049Z,2.57
2019-05-15T14:05:38.315Z,5.77
2019-05-15T14:08:07.269Z,2.67
2019-05-15T14:10:38.668Z,3.63
2019-05-15T14:13:08.120Z,2.47
2019-05-15T14:15:38.289Z,4.20
2019-05-15T14:18:08.585Z,3.33
2019-05-15T14:20:38.740Z,3.83
2019-05-15T14:23:08.708Z,3.53
2019-05-15T14:25:38.829Z,2.67
2019-05-15T14:28:08.957Z,3.57
2019-05-15T14:30:37.664Z,3.20
2019-05-15T14:33:08.492Z,5.93
2019-05-15T14:35:37.949Z,3.50
2019-05-15T14:38:09.928Z,2.03
2019-05-15T14:40:36.875Z,2.03
2019-05-15T14:43:24.630Z,6.83
2019-05-15T14:45:55.826Z,4.47
2019-05-15T14:48:24.246Z,4.00
2019-05-15T14:50:52.657Z,2.80
2019-05-15T14:53:21.098Z,4.87
2019-05-15T14:55:49.522Z,4.60
2019-05-15T14:58:19.755Z,3.03
2019-05-15T15:00:50.056Z,5.60
2019-05-15T15:03:18.450Z,3.57
2019-05-15T15:05:49.171Z,4.90
2019-05-15T15:08:24.586Z,2.77
2019-05-15T15:10:47.353Z,3.80
2019-05-15T15:13:18.169Z,7.70
2019-05-15T15:15:48.055Z,3.23
2019-05-15T15:18:18.439Z,12.87
2019-05-15T15:20:48.343Z,2.63
2019-05-15T15:23:16.455Z,4.10
2019-05-15T15:25:44.895Z,3.33
2019-05-15T15:28:13.579Z,3.20
2019-05-15T15:30:42.450Z,2.80
2019-05-15T15:33:10.884Z,4.23
2019-05-15T15:35:39.370Z,3.17
2019-05-15T15:38:12.945Z,2.30
2019-05-15T15:40:38.804Z,4.47
2019-05-15T15:43:09.105Z,3.23
2019-05-15T15:45:39.077Z,3.77
2019-05-15T15:48:08.365Z,2.47
2019-05-15T15:50:38.394Z,2.13
2019-05-15T15:53:08.814Z,5.90
2019-05-15T15:55:38.565Z,5.70
2019-05-15T15:58:08.874Z,3.60
2019-05-15T16:00:38.324Z,2.07
2019-05-15T16:03:08.476Z,3.20
2019-05-15T16:05:38.458Z,4.90
2019-05-15T16:08:08.530Z,1.97
2019-05-15T16:10:37.915Z,4.53
2019-05-15T16:13:09.012Z,2.50
2019-05-15T16:15:38.509Z,5.63
2019-05-15T16:18:08.863Z,3.70
2019-05-15T16:20:39.261Z,7.33
2019-05-15T16:23:08.378Z,2.83
2019-05-15T16:25:38.462Z,2.80
2019-05-15T16:28:08.822Z,3.17
2019-05-15T16:30:50.240Z,2.13
2019-05-15T16:33:09.506Z,2.77
2019-05-15T16:35:38.096Z,5.43
2019-05-15T16:38:09.027Z,2.50
2019-05-15T16:40:38.297Z,4.67
2019-05-15T16:43:07.007Z,2.20
2019-05-15T16:45:38.442Z,5.17
2019-05-15T16:48:05.671Z,1.93
2019-05-15T16:50:34.097Z,3.73
2019-05-15T16:53:02.711Z,2.33
2019-05-15T16:55:31.198Z,3.67
2019-05-15T16:57:59.660Z,1.73
2019-05-15T17:00:29.146Z,3.23
2019-05-15T17:03:08.948Z,4.40
2019-05-15T17:05:29.150Z,4.00
2019-05-15T17:07:58.317Z,5.37
2019-05-15T17:10:28.209Z,4.23
2019-05-15T17:12:58.325Z,2.73
2019-05-15T17:15:30.101Z,3.27
2019-05-15T17:17:58.593Z,3.20
2019-05-15T17:20:28.584Z,4.00
2019-05-15T17:22:57.930Z,2.53
2019-05-15T17:25:26.574Z,7.37
2019-05-15T17:27:54.990Z,3.43
2019-05-15T17:30:23.425Z,3.62
2019-05-15T17:32:52.623Z,2.20
2019-05-15T17:35:21.050Z,3.08
2019-05-15T17:37:49.551Z,2.73
2019-05-15T17:40:18.110Z,3.08
2019-05-15T17:42:48.974Z,3.37
2019-05-15T17:45:19.133Z,4.10
2019-05-15T17:47:48.746Z,3.60
2019-05-15T17:50:19.143Z,2.47
2019-05-15T17:53:06.815Z,2.53
2019-05-15T17:55:38.401Z,3.20
2019-05-15T17:58:08.714Z,2.30
2019-05-15T18:00:39.324Z,2.60
2019-05-15T18:03:08.650Z,3.00
2019-05-15T18:05:39.162Z,3.00
2019-05-15T18:08:08.786Z,2.70
2019-05-15T18:10:38.479Z,3.90
2019-05-15T18:13:08.977Z,2.42
2019-05-15T18:15:38.559Z,4.13
2019-05-15T18:18:09.516Z,5.33
2019-05-15T18:20:38.380Z,2.60
2019-05-15T18:23:08.449Z,3.83
2019-05-15T18:25:38.399Z,2.33
2019-05-15T18:28:08.963Z,3.73
2019-05-15T18:30:38.885Z,4.83
2019-05-15T18:33:08.929Z,3.20
2019-05-15T18:35:38.571Z,2.30
2019-05-15T18:38:08.910Z,2.55
2019-05-15T18:40:38.355Z,4.33
2019-05-15T18:43:09.770Z,4.33
2019-05-15T18:45:38.319Z,3.73
2019-05-15T18:48:06.999Z,3.80
2019-05-15T18:50:37.656Z,4.10
2019-05-15T18:53:05.642Z,2.37
2019-05-15T18:55:34.134Z,6.13
2019-05-15T18:58:02.552Z,6.17
2019-05-15T19:00:30.972Z,4.90
2019-05-15T19:02:59.702Z,4.50
2019-05-15T19:05:28.291Z,5.00
2019-05-15T19:07:57.990Z,5.30
2019-05-15T19:10:28.198Z,7.10
2019-05-15T19:12:58.163Z,10.97
2019-05-15T19:15:28.632Z,8.03
2019-05-15T19:17:58.642Z,6.63
2019-05-15T19:20:28.118Z,5.27
2019-05-15T19:22:58.691Z,4.17
2019-05-15T19:25:28.575Z,7.83
2019-05-15T19:27:57.298Z,6.17
2019-05-15T19:30:28.487Z,9.03
2019-05-15T19:32:58.241Z,3.80
2019-05-15T19:35:28.032Z,7.97
2019-05-15T19:37:58.557Z,4.57
2019-05-15T19:40:28.309Z,3.60
2019-05-15T19:42:59.037Z,3.20
2019-05-15T19:45:28.143Z,2.80
2019-05-15T19:47:58.760Z,3.47
2019-05-15T19:50:28.778Z,3.57
2019-05-15T19:52:59.215Z,4.97
2019-05-15T19:55:27.472Z,3.00
2019-05-15T19:57:55.895Z,5.57
2019-05-15T20:00:24.650Z,5.80
2019-05-15T20:02:53.137Z,2.77
2019-05-15T20:05:21.554Z,3.15
2019-05-15T20:07:50.107Z,2.87
2019-05-15T20:10:18.765Z,5.10
2019-05-15T20:12:47.941Z,5.97
2019-05-15T20:15:19.035Z,3.72
2019-05-15T20:17:47.891Z,4.17
2019-05-15T20:20:18.653Z,5.28
2019-05-15T20:22:47.538Z,3.00
2019-05-15T20:25:18.319Z,2.77
2019-05-15T20:27:48.136Z,4.30
2019-05-15T20:30:18.076Z,4.67
2019-05-15T20:32:47.900Z,4.53
2019-05-15T20:35:16.594Z,6.37
2019-05-15T20:37:45.037Z,3.83
2019-05-15T20:40:15.079Z,8.83
2019-05-15T20:42:43.570Z,3.97
2019-05-15T20:45:12.570Z,6.50
2019-05-15T20:47:41.269Z,4.17
2019-05-15T20:50:10.633Z,4.60
2019-05-15T20:52:39.842Z,4.27
2019-05-15T20:55:08.844Z,6.83
2019-05-15T20:57:40.180Z,4.07
2019-05-15T21:00:09.045Z,5.73
2019-05-15T21:02:37.974Z,7.40
2019-05-15T21:05:08.791Z,6.30
2019-05-15T21:07:40.088Z,8.23
2019-05-15T21:10:08.496Z,4.20
2019-05-15T21:12:40.466Z,3.03
2019-05-15T21:15:08.773Z,3.83
2019-05-15T21:17:40.254Z,3.07
2019-05-15T21:20:09.339Z,4.30
2019-05-15T21:22:40.345Z,5.70
2019-05-15T21:25:10.766Z,4.03
2019-05-15T21:27:42.674Z,5.17
2019-05-15T21:30:10.802Z,3.72
2019-05-15T21:32:39.293Z,4.57
2019-05-15T21:35:09.099Z,3.97
2019-05-15T21:37:38.864Z,3.20
2019-05-15T21:40:08.570Z,4.90
2019-05-15T21:42:38.896Z,5.03
2019-05-15T21:45:14.225Z,4.27
2019-05-15T21:47:39.618Z,2.77
2019-05-15T21:50:09.196Z,2.67
2019-05-15T21:52:39.193Z,4.33
2019-05-15T21:55:09.606Z,3.53
2019-05-15T21:57:40.231Z,8.57
2019-05-15T22:00:14.307Z,5.83
2019-05-15T22:02:42.784Z,2.57
2019-05-15T22:05:11.208Z,8.13
2019-05-15T22:07:39.654Z,3.13
2019-05-15T22:10:11.073Z,4.63
2019-05-15T22:12:39.678Z,5.00
2019-05-15T22:15:09.127Z,4.57
2019-05-15T22:17:38.915Z,7.47
2019-05-15T22:20:08.712Z,7.83
2019-05-15T22:22:37.610Z,5.33
2019-05-15T22:25:08.541Z,7.57
2019-05-15T22:27:38.313Z,7.70
2019-05-15T22:30:08.393Z,6.70
2019-05-15T22:32:38.697Z,7.83
2019-05-15T22:35:14.057Z,5.07
2019-05-15T22:37:41.738Z,6.33
2019-05-15T22:40:10.944Z,5.27
2019-05-15T22:42:39.431Z,6.03
2019-05-15T22:45:11.774Z,4.63
2019-05-15T22:47:39.730Z,5.40
2019-05-15T22:50:09.185Z,6.83
2019-05-15T22:52:38.979Z,5.60
2019-05-15T22:55:09.594Z,7.43
2019-05-15T22:57:38.850Z,7.57
2019-05-15T23:00:09.897Z,6.53
2019-05-15T23:02:38.386Z,5.43
2019-05-15T23:05:23.512Z,6.77
2019-05-15T23:07:39.037Z,6.60
2019-05-15T23:10:08.940Z,5.03
2019-05-15T23:12:38.338Z,6.60
2019-05-15T23:15:08.742Z,4.63
2019-05-15T23:17:38.280Z,10.00
2019-05-15T23:20:08.977Z,6.57
2019-05-15T23:22:38.506Z,4.50
2019-05-15T23:25:07.880Z,4.77
2019-05-15T23:27:38.198Z,9.40
2019-05-15T23:30:09.011Z,6.17
2019-05-15T23:32:39.185Z,5.70
2019-05-15T23:35:08.118Z,6.07
2019-05-15T23:37:39.057Z,5.70
2019-05-15T23:40:08.802Z,5.50
2019-05-15T23:42:39.047Z,5.63
2019-05-15T23:45:09.171Z,6.27
2019-05-15T23:47:38.448Z,4.67
2019-05-15T23:50:08.509Z,4.80
2019-05-15T23:52:38.519Z,8.90
2019-05-15T23:55:08.508Z,5.03
2019-05-15T23:57:39.310Z,6.00
